sensor_id;sensor_type;location;lat;lon;timestamp;P1;durP1;ratioP1;P2;durP2;ratioP2
17866;SDS011;9059;49.934;8.650;2024-03-02T00:07:32;3.20;;;1.30;;
17866;SDS011;9059;49.934;8.650;2024-03-02T00:17:37;2.57;;;1.00;;
17866;SDS011;9059;49.934;8.650;2024-03-02T00:27:39;4.40;;;1.27;;
17866;SDS011;9059;49.934;8.650;2024-03-02T00:37:44;3.40;;;1.50;;
17866;SDS011;9059;49.934;8.650;2024-03-02T00:47:46;3.40;;;1.70;;
17866;SDS011;9059;49.934;8.650;2024-03-02T00:57:51;4.10;;;1.63;;
17866;SDS011;9059;49.934;8.650;2024-03-02T01:07:54;7.10;;;2.60;;
17866;SDS011;9059;49.934;8.650;2024-03-02T01:17:58;9.00;;;3.20;;
17866;SDS011;9059;49.934;8.650;2024-03-02T01:28:00;15.43;;;2.97;;
17866;SDS011;9059;49.934;8.650;2024-03-02T01:38:05;6.37;;;2.30;;
17866;SDS011;9059;49.934;8.650;2024-03-02T01:48:08;5.70;;;2.40;;
17866;SDS011;9059;49.934;8.650;2024-03-02T01:58:12;6.27;;;2.30;;
17866;SDS011;9059;49.934;8.650;2024-03-02T02:08:15;7.63;;;2.83;;
17866;SDS011;9059;49.934;8.650;2024-03-02T02:18:20;7.63;;;3.23;;
17866;SDS011;9059;49.934;8.650;2024-03-02T02:28:24;7.13;;;2.70;;
17866;SDS011;9059;49.934;8.650;2024-03-02T02:38:27;5.30;;;2.40;;
17866;SDS011;9059;49.934;8.650;2024-03-02T02:48:31;6.50;;;2.60;;
17866;SDS011;9059;49.934;8.650;2024-03-02T02:58:34;6.03;;;2.53;;
17866;SDS011;9059;49.934;8.650;2024-03-02T03:08:38;5.73;;;2.53;;
17866;SDS011;9059;49.934;8.650;2024-03-02T03:18:41;7.17;;;2.97;;
17866;SDS011;9059;49.934;8.650;2024-03-02T03:28:45;5.70;;;2.57;;
17866;SDS011;9059;49.934;8.650;2024-03-02T03:38:48;6.93;;;2.47;;
17866;SDS011;9059;49.934;8.650;2024-03-02T03:48:52;6.63;;;3.10;;
17866;SDS011;9059;49.934;8.650;2024-03-02T03:58:57;9.50;;;2.40;;
17866;SDS011;9059;49.934;8.650;2024-03-02T04:09:02;8.53;;;2.70;;
17866;SDS011;9059;49.934;8.650;2024-03-02T04:19:07;7.77;;;2.93;;
17866;SDS011;9059;49.934;8.650;2024-03-02T04:29:11;7.73;;;2.43;;
17866;SDS011;9059;49.934;8.650;2024-03-02T04:39:14;4.67;;;2.03;;
17866;SDS011;9059;49.934;8.650;2024-03-02T04:49:18;4.63;;;2.13;;
17866;SDS011;9059;49.934;8.650;2024-03-02T04:59:21;6.63;;;2.50;;
17866;SDS011;9059;49.934;8.650;2024-03-02T05:09:25;9.30;;;3.00;;
17866;SDS011;9059;49.934;8.650;2024-03-02T05:19:28;8.97;;;3.07;;
17866;SDS011;9059;49.934;8.650;2024-03-02T05:29:34;5.87;;;2.57;;
17866;SDS011;9059;49.934;8.650;2024-03-02T05:39:38;6.70;;;2.80;;
17866;SDS011;9059;49.934;8.650;2024-03-02T05:49:42;10.67;;;4.20;;
17866;SDS011;9059;49.934;8.650;2024-03-02T05:59:45;6.10;;;2.80;;
17866;SDS011;9059;49.934;8.650;2024-03-02T06:09:49;6.97;;;2.80;;
17866;SDS011;9059;49.934;8.650;2024-03-02T06:19:53;7.57;;;3.30;;
17866;SDS011;9059;49.934;8.650;2024-03-02T06:29:58;8.00;;;3.47;;
17866;SDS011;9059;49.934;8.650;2024-03-02T06:40:00;9.33;;;3.50;;
17866;SDS011;9059;49.934;8.650;2024-03-02T06:50:05;9.80;;;3.80;;
17866;SDS011;9059;49.934;8.650;2024-03-02T07:00:09;14.10;;;6.00;;
17866;SDS011;9059;49.934;8.650;2024-03-02T07:10:15;12.67;;;4.67;;
17866;SDS011;9059;49.934;8.650;2024-03-02T07:20:18;9.60;;;4.23;;
17866;SDS011;9059;49.934;8.650;2024-03-02T07:30:22;8.53;;;3.60;;
17866;SDS011;9059;49.934;8.650;2024-03-02T07:40:25;13.47;;;4.83;;
17866;SDS011;9059;49.934;8.650;2024-03-02T07:50:29;11.40;;;5.40;;
17866;SDS011;9059;49.934;8.650;2024-03-02T08:00:32;8.43;;;4.40;;
17866;SDS011;9059;49.934;8.650;2024-03-02T08:10:37;9.95;;;4.18;;
17866;SDS011;9059;49.934;8.650;2024-03-02T08:20:40;9.75;;;3.92;;
17866;SDS011;9059;49.934;8.650;2024-03-02T08:30:44;11.48;;;4.25;;
17866;SDS011;9059;49.934;8.650;2024-03-02T08:40:47;10.98;;;4.07;;
17866;SDS011;9059;49.934;8.650;2024-03-02T08:50:51;10.73;;;3.92;;
17866;SDS011;9059;49.934;8.650;2024-03-02T09:00:54;8.93;;;3.92;;
17866;SDS011;9059;49.934;8.650;2024-03-02T09:10:58;8.93;;;3.92;;
17866;SDS011;9059;49.934;8.650;2024-03-02T09:21:01;8.88;;;3.97;;
17866;SDS011;9059;49.934;8.650;2024-03-02T09:31:07;7.80;;;3.53;;
17866;SDS011;9059;49.934;8.650;2024-03-02T09:41:10;13.77;;;3.78;;
17866;SDS011;9059;49.934;8.650;2024-03-02T09:51:14;8.82;;;4.03;;
17866;SDS011;9059;49.934;8.650;2024-03-02T10:01:21;7.60;;;3.20;;
17866;SDS011;9059;49.934;8.650;2024-03-02T10:11:29;7.47;;;3.38;;
17866;SDS011;9059;49.934;8.650;2024-03-02T10:21:34;8.10;;;3.13;;
17866;SDS011;9059;49.934;8.650;2024-03-02T10:31:39;7.15;;;2.65;;
17866;SDS011;9059;49.934;8.650;2024-03-02T10:41:43;5.75;;;2.83;;
17866;SDS011;9059;49.934;8.650;2024-03-02T10:51:47;7.28;;;2.83;;
17866;SDS011;9059;49.934;8.650;2024-03-02T11:01:51;4.20;;;2.25;;
17866;SDS011;9059;49.934;8.650;2024-03-02T11:12:02;4.72;;;2.13;;
17866;SDS011;9059;49.934;8.650;2024-03-02T11:22:06;4.38;;;1.63;;
17866;SDS011;9059;49.934;8.650;2024-03-02T11:32:14;2.40;;;1.50;;
17866;SDS011;9059;49.934;8.650;2024-03-02T11:42:18;4.50;;;1.95;;
17866;SDS011;9059;49.934;8.650;2024-03-02T11:52:22;6.43;;;1.85;;
17866;SDS011;9059;49.934;8.650;2024-03-02T12:02:26;6.88;;;1.83;;
17866;SDS011;9059;49.934;8.650;2024-03-02T12:12:30;3.28;;;1.63;;
17866;SDS011;9059;49.934;8.650;2024-03-02T12:22:33;2.50;;;1.60;;
17866;SDS011;9059;49.934;8.650;2024-03-02T12:32:38;2.83;;;1.48;;
17866;SDS011;9059;49.934;8.650;2024-03-02T12:42:41;4.60;;;2.33;;
17866;SDS011;9059;49.934;8.650;2024-03-02T12:52:51;4.82;;;1.90;;
17866;SDS011;9059;49.934;8.650;2024-03-02T13:02:56;4.55;;;2.42;;
17866;SDS011;9059;49.934;8.650;2024-03-02T13:13:05;4.10;;;2.00;;
17866;SDS011;9059;49.934;8.650;2024-03-02T13:23:08;3.30;;;1.67;;
17866;SDS011;9059;49.934;8.650;2024-03-02T13:33:13;3.55;;;1.45;;
17866;SDS011;9059;49.934;8.650;2024-03-02T13:43:16;6.82;;;1.80;;
17866;SDS011;9059;49.934;8.650;2024-03-02T13:53:21;3.20;;;1.63;;
17866;SDS011;9059;49.934;8.650;2024-03-02T14:03:24;2.90;;;1.63;;
17866;SDS011;9059;49.934;8.650;2024-03-02T14:13:32;3.15;;;1.60;;
17866;SDS011;9059;49.934;8.650;2024-03-02T14:23:35;3.35;;;1.60;;
17866;SDS011;9059;49.934;8.650;2024-03-02T14:33:39;2.70;;;1.63;;
17866;SDS011;9059;49.934;8.650;2024-03-02T14:43:43;2.25;;;1.10;;
17866;SDS011;9059;49.934;8.650;2024-03-02T14:53:48;1.85;;;1.05;;
17866;SDS011;9059;49.934;8.650;2024-03-02T15:03:50;1.35;;;0.90;;
17866;SDS011;9059;49.934;8.650;2024-03-02T15:13:55;1.25;;;0.90;;
17866;SDS011;9059;49.934;8.650;2024-03-02T15:23:58;0.80;;;0.57;;
17866;SDS011;9059;49.934;8.650;2024-03-02T15:34:02;0.50;;;0.50;;
17866;SDS011;9059;49.934;8.650;2024-03-02T15:44:05;1.27;;;0.80;;
17866;SDS011;9059;49.934;8.650;2024-03-02T15:54:10;1.00;;;0.40;;
17866;SDS011;9059;49.934;8.650;2024-03-02T16:04:13;0.68;;;0.40;;
17866;SDS011;9059;49.934;8.650;2024-03-02T16:14:17;1.02;;;0.38;;
17866;SDS011;9059;49.934;8.650;2024-03-02T16:24:20;0.70;;;0.40;;
17866;SDS011;9059;49.934;8.650;2024-03-02T16:34:24;1.02;;;0.55;;
17866;SDS011;9059;49.934;8.650;2024-03-02T16:44:27;1.00;;;0.45;;
17866;SDS011;9059;49.934;8.650;2024-03-02T16:54:31;2.47;;;0.70;;
17866;SDS011;9059;49.934;8.650;2024-03-02T17:04:34;1.17;;;0.60;;
17866;SDS011;9059;49.934;8.650;2024-03-02T17:14:38;4.03;;;2.10;;
17866;SDS011;9059;49.934;8.650;2024-03-02T17:24:41;2.15;;;0.80;;
17866;SDS011;9059;49.934;8.650;2024-03-02T17:34:46;2.20;;;0.98;;
17866;SDS011;9059;49.934;8.650;2024-03-02T17:44:49;2.80;;;1.10;;
17866;SDS011;9059;49.934;8.650;2024-03-02T17:54:53;3.95;;;1.48;;
17866;SDS011;9059;49.934;8.650;2024-03-02T18:04:56;5.43;;;1.70;;
17866;SDS011;9059;49.934;8.650;2024-03-02T18:15:01;3.67;;;1.40;;
17866;SDS011;9059;49.934;8.650;2024-03-02T18:25:04;4.47;;;1.65;;
17866;SDS011;9059;49.934;8.650;2024-03-02T18:35:08;3.28;;;1.08;;
17866;SDS011;9059;49.934;8.650;2024-03-02T18:45:11;5.72;;;1.45;;
17866;SDS011;9059;49.934;8.650;2024-03-02T18:55:16;5.03;;;1.48;;
17866;SDS011;9059;49.934;8.650;2024-03-02T19:05:19;4.00;;;1.65;;
17866;SDS011;9059;49.934;8.650;2024-03-02T19:15:23;3.22;;;1.50;;
17866;SDS011;9059;49.934;8.650;2024-03-02T19:25:26;3.58;;;1.48;;
17866;SDS011;9059;49.934;8.650;2024-03-02T19:35:30;5.30;;;2.22;;
17866;SDS011;9059;49.934;8.650;2024-03-02T19:45:33;5.93;;;2.53;;
17866;SDS011;9059;49.934;8.650;2024-03-02T19:55:38;5.55;;;2.72;;
17866;SDS011;9059;49.934;8.650;2024-03-02T20:05:42;8.60;;;3.40;;
17866;SDS011;9059;49.934;8.650;2024-03-02T20:15:46;11.68;;;4.10;;
17866;SDS011;9059;49.934;8.650;2024-03-02T20:25:49;11.05;;;4.25;;
17866;SDS011;9059;49.934;8.650;2024-03-02T20:35:54;14.88;;;4.70;;
17866;SDS011;9059;49.934;8.650;2024-03-02T20:45:56;11.60;;;4.05;;
17866;SDS011;9059;49.934;8.650;2024-03-02T20:56:07;13.70;;;4.80;;
17866;SDS011;9059;49.934;8.650;2024-03-02T21:06:10;10.55;;;5.00;;
17866;SDS011;9059;49.934;8.650;2024-03-02T21:16:14;13.32;;;4.93;;
17866;SDS011;9059;49.934;8.650;2024-03-02T21:26:17;13.32;;;5.00;;
17866;SDS011;9059;49.934;8.650;2024-03-02T21:36:22;12.57;;;4.82;;
17866;SDS011;9059;49.934;8.650;2024-03-02T21:46:24;13.85;;;5.43;;
17866;SDS011;9059;49.934;8.650;2024-03-02T21:56:29;13.27;;;5.53;;
17866;SDS011;9059;49.934;8.650;2024-03-02T22:06:31;13.80;;;5.15;;
17866;SDS011;9059;49.934;8.650;2024-03-02T22:16:36;14.53;;;6.40;;
17866;SDS011;9059;49.934;8.650;2024-03-02T22:26:39;13.90;;;4.82;;
17866;SDS011;9059;49.934;8.650;2024-03-02T22:36:43;12.73;;;4.80;;
17866;SDS011;9059;49.934;8.650;2024-03-02T22:46:46;13.68;;;5.20;;
17866;SDS011;9059;49.934;8.650;2024-03-02T22:56:50;14.65;;;5.00;;
17866;SDS011;9059;49.934;8.650;2024-03-02T23:06:53;13.07;;;4.93;;
17866;SDS011;9059;49.934;8.650;2024-03-02T23:16:57;14.57;;;4.95;;
17866;SDS011;9059;49.934;8.650;2024-03-02T23:27:00;14.57;;;5.32;;
17866;SDS011;9059;49.934;8.650;2024-03-02T23:37:04;16.13;;;5.70;;
17866;SDS011;9059;49.934;8.650;2024-03-02T23:47:09;17.00;;;5.82;;
17866;SDS011;9059;49.934;8.650;2024-03-02T23:57:14;17.08;;;5.78;;
